createdAt,value
2018-02-23T00:03:32.822Z,-1.41
2018-02-23T00:13:31.040Z,-1.50
2018-02-23T00:23:31.308Z,-1.60
2018-02-23T00:33:30.222Z,-1.60
2018-02-23T00:43:31.254Z,-1.60
2018-02-23T00:53:30.268Z,-1.70
2018-02-23T01:03:29.068Z,-1.60
2018-02-23T01:13:27.919Z,-1.60
2018-02-23T01:23:26.036Z,-1.70
2018-02-23T01:33:24.818Z,-1.70
2018-02-23T01:43:25.451Z,-1.80
2018-02-23T01:53:27.677Z,-1.70
2018-02-23T02:03:27.360Z,-1.50
2018-02-23T02:13:26.007Z,-1.41
2018-02-23T02:23:27.156Z,-1.50
2018-02-23T02:33:27.985Z,-1.50
2018-02-23T02:43:30.492Z,-1.31
2018-02-23T02:53:31.411Z,-1.50
2018-02-23T03:03:30.775Z,-1.70
2018-02-23T03:13:32.807Z,-1.70
2018-02-23T03:23:34.223Z,-1.50
2018-02-23T03:33:32.985Z,-1.50
2018-02-23T03:43:36.278Z,-1.41
2018-02-23T03:53:36.865Z,-1.70
2018-02-23T04:03:35.427Z,-1.70
2018-02-23T04:13:34.412Z,-1.70
2018-02-23T04:23:39.120Z,-1.60
2018-02-23T04:33:38.736Z,-1.50
2018-02-23T04:43:39.493Z,-1.50
2018-02-23T04:53:41.008Z,-1.31
2018-02-23T05:03:42.150Z,-1.50
2018-02-23T05:13:41.876Z,-1.31
2018-02-23T05:23:42.684Z,-1.50
2018-02-23T05:33:43.652Z,-1.60
2018-02-23T05:43:42.765Z,-1.60
2018-02-23T05:53:43.334Z,-1.41
2018-02-23T06:03:44.356Z,-1.31
2018-02-23T06:13:41.261Z,-1.50
2018-02-23T06:23:42.436Z,-1.11
2018-02-23T06:33:42.424Z,-1.11
2018-02-23T06:43:41.339Z,-1.02
2018-02-23T06:53:41.453Z,-1.11
2018-02-23T07:03:42.330Z,-0.92
2018-02-23T07:13:41.104Z,-0.72
2018-02-23T07:23:32.744Z,-0.82
2018-02-23T07:33:28.204Z,-0.62
2018-02-23T07:43:23.822Z,-0.62
2018-02-23T07:53:18.833Z,-0.72
2018-02-23T08:03:16.480Z,-0.82
2018-02-23T08:13:11.328Z,-0.33
2018-02-23T08:23:06.702Z,-0.33
2018-02-23T08:33:05.416Z,-0.14
2018-02-23T08:43:01.090Z,0.06
2018-02-23T08:52:53.141Z,0.26
2018-02-23T09:02:49.774Z,-0.43
2018-02-23T09:12:43.198Z,-0.53
2018-02-23T09:22:42.280Z,0.75
2018-02-23T09:33:19.362Z,0.84
2018-02-23T09:43:16.199Z,1.53
2018-02-23T09:53:13.639Z,1.53
2018-02-23T10:03:11.205Z,1.63
2018-02-23T10:13:06.741Z,1.82
2018-02-23T10:23:03.244Z,1.63
2018-02-23T10:32:57.989Z,1.63
2018-02-23T10:42:53.404Z,1.72
2018-02-23T10:52:46.132Z,1.82
2018-02-23T11:02:43.363Z,2.02
2018-02-23T11:12:37.073Z,1.82
2018-02-23T11:22:31.823Z,2.02
2018-02-23T11:32:28.337Z,1.92
2018-02-23T11:42:27.202Z,2.21
2018-02-23T11:52:22.775Z,2.31
2018-02-23T12:02:20.967Z,1.82
2018-02-23T12:12:19.421Z,1.53
2018-02-23T12:22:18.986Z,1.92
2018-02-23T12:32:18.607Z,2.02
2018-02-23T12:42:12.115Z,2.41
2018-02-23T12:52:06.031Z,2.02
2018-02-23T13:01:56.898Z,1.82
2018-02-23T13:11:50.028Z,1.53
2018-02-23T13:21:39.674Z,1.63
2018-02-23T13:31:31.212Z,1.33
2018-02-23T13:41:26.114Z,1.43
2018-02-23T13:51:19.667Z,1.23
2018-02-23T14:01:14.228Z,1.04
2018-02-23T14:11:12.366Z,0.94
2018-02-23T14:21:07.988Z,0.75
2018-02-23T14:31:07.675Z,0.74
2018-02-23T14:41:01.574Z,0.65
2018-02-23T14:50:59.474Z,0.75
2018-02-23T15:00:57.680Z,0.75
2018-02-23T15:10:56.808Z,0.84
2018-02-23T15:20:51.266Z,0.65
2018-02-23T15:30:47.478Z,0.74
2018-02-23T15:40:44.221Z,0.75
2018-02-23T15:50:39.312Z,0.84
2018-02-23T16:00:38.286Z,0.65
2018-02-23T16:10:33.230Z,0.65
2018-02-23T16:20:29.930Z,0.55
2018-02-23T16:30:27.010Z,0.55
2018-02-23T16:40:24.865Z,0.45
2018-02-23T16:50:11.972Z,0.45
2018-02-23T17:00:10.904Z,0.35
2018-02-23T17:10:03.454Z,0.35
2018-02-23T17:20:04.147Z,0.45
2018-02-23T17:30:03.250Z,0.26
2018-02-23T17:39:56.558Z,0.26
2018-02-23T17:49:48.617Z,0.35
2018-02-23T17:59:45.176Z,0.16
2018-02-23T18:09:33.587Z,0.16
2018-02-23T18:19:26.617Z,0.26
2018-02-23T18:29:24.689Z,0.35
2018-02-23T18:39:17.872Z,0.06
2018-02-23T18:49:05.534Z,0.16
2018-02-23T18:59:02.490Z,0.16
2018-02-23T19:08:57.708Z,0.06
2018-02-23T19:18:56.650Z,0.06
2018-02-23T19:28:53.179Z,0.06
2018-02-23T19:38:46.898Z,0.06
2018-02-23T19:48:44.593Z,0.06
2018-02-23T19:58:39.237Z,0.16
2018-02-23T20:08:33.784Z,0.06
2018-02-23T20:18:26.232Z,0.16
2018-02-23T20:28:23.846Z,0.06
2018-02-23T20:38:22.865Z,0.06
2018-02-23T20:48:16.277Z,-0.04
2018-02-23T20:58:13.761Z,0.16
2018-02-23T21:08:11.001Z,0.06
2018-02-23T21:18:09.373Z,-0.04
2018-02-23T21:28:08.444Z,0.06
2018-02-23T21:38:07.193Z,-0.04
2018-02-23T21:48:06.746Z,-0.13
2018-02-23T21:58:06.811Z,0.06
2018-02-23T22:08:04.147Z,-0.14
2018-02-23T22:18:03.712Z,-0.13
2018-02-23T22:28:03.048Z,-0.13
2018-02-23T22:38:00.151Z,-0.23
2018-02-23T22:48:01.427Z,-0.33
2018-02-23T22:58:03.065Z,-0.14
2018-02-23T23:07:59.997Z,-0.13
2018-02-23T23:18:00.044Z,-0.23
2018-02-23T23:28:01.402Z,-0.33
2018-02-23T23:38:00.513Z,-0.23
2018-02-23T23:47:59.646Z,-0.23
2018-02-23T23:57:57.023Z,-0.23
